Aviation Digital Data Service (ADDS)

Output produced by METARs form (0621 UTC 19 March 2019)
found at http://www.aviationweather.gov/metar/data/
 
Forecast for: GABS (BAMAKO/SENOU (MI, ML)
Text: TAF GABS 190500Z 1906/2012 18008KT 6000 FEW040
Forecast period: 0600 UTC 19 March 2019 to 1200 UTC 20 March 2019
Forecast type: FROM: standard forecast or significant change
Winds: from the S (180 degrees) at 9 MPH (8 knots; 4.1 m/s)
Visibility: 4 miles (6 km)
Ceiling: at least 12,000 feet AGL
Clouds: few clouds at 4000 feet AGL
Weather: no significant weather forecast for this period